Powers, Indiana
Current Conditions -  °F | °C
As of 11:53 AM on Monday 22 Dec 2014 (Local Time) from KMIE Reporting Station
Overcast Overcast  
Wind Chill: 33°   Ceiling: 8000
Heat Index: 38°   Visibility: 8mi
Dew Point: 32°   Wind: 7mph
Humidity: 79%   Direction: 150°SSE
Pressure: 29.93"   Gusts: NA
Location:  40.4312°N, 85.0058°W
Report Text: KMIE 221653Z 15006KT 8SM FEW014 SCT037 OVC080 03/00 A2993 RMK AO2 SLP141 T00330000
Loading
Personal Weather Stations






























Interactive Weather Map New forecast layout! Learn more

10-Day Weather Forecast

Advertisements
Track Severe Weather on mobile